Time;durP1;ratioP1;P1;durP2;ratioP2;P2;SDS_P1;SDS_P2;PMS_P1;PMS_P2;Temp;Humidity;BMP_temperature;BMP_pressure;BME280_temperature;BME280_humidity;BME280_pressure;Samples;Min_cycle;Max_cycle;Signal;HPM_P1;HPM_P2
2021/11/17 02:29:40;;;;;;;96.93;43.33;;;;;;;4.89;100.00;101107.60;4966754;58;1145278;-77
2021/11/17 02:35:08;;;;;;;88.73;40.93;;;;;;;4.77;100.00;101110.77;5067307;58;1143471;-77
2021/11/17 02:40:52;;;;;;;79.03;37.63;;;;;;;4.74;100.00;101102.19;5074906;58;1143307;-80
2021/11/17 02:46:30;;;;;;;92.53;43.13;;;;;;;4.70;100.00;101092.79;5015775;58;1141114;-77
2021/11/17 02:51:52;;;;;;;110.70;48.47;;;;;;;4.62;100.00;101088.33;5094475;58;1141010;-77
2021/11/17 02:57:17;;;;;;;102.07;47.37;;;;;;;4.73;100.00;101079.55;5041052;58;21193;-78
2021/11/17 03:02:52;;;;;;;112.30;50.97;;;;;;;4.76;100.00;101068.91;5059881;58;1140350;-77
2021/11/17 03:08:24;;;;;;;105.55;46.88;;;;;;;4.86;100.00;101075.47;5019261;58;1143590;-75
2021/11/17 03:13:43;;;;;;;90.50;45.37;;;;;;;4.90;100.00;101073.07;5028340;58;1145178;-76
2021/11/17 03:18:54;;;;;;;94.57;46.53;;;;;;;4.96;100.00;101070.19;4973463;59;1143175;-78
2021/11/17 03:24:28;;;;;;;91.13;44.80;;;;;;;4.90;100.00;101063.44;4981992;59;1141270;-76
2021/11/17 03:30:18;;;;;;;88.80;43.80;;;;;;;4.87;100.00;101059.67;5058416;58;1143343;-75
2021/11/17 03:35:31;;;;;;;94.25;45.15;;;;;;;4.83;100.00;101055.94;5057905;58;1143399;-77
2021/11/17 03:40:57;;;;;;;110.30;49.97;;;;;;;4.83;100.00;101063.34;4902441;60;1141222;-75
2021/11/17 03:46:25;;;;;;;100.37;51.03;;;;;;;4.85;100.00;101055.41;5058089;58;1141444;-76
2021/11/17 03:51:42;;;;;;;126.53;58.67;;;;;;;4.87;100.00;101062.75;5081060;58;1141275;-76
2021/11/17 03:56:58;;;;;;;217.17;117.30;;;;;;;4.85;100.00;101054.95;5098393;57;1143206;-78
2021/11/17 04:02:21;;;;;;;109.33;60.13;;;;;;;4.83;100.00;101055.94;5153676;57;1143286;-78
2021/11/17 04:08:05;;;;;;;104.77;52.97;;;;;;;4.81;100.00;101056.47;5141207;57;1144856;-76
2021/11/17 04:13:21;;;;;;;112.97;52.98;;;;;;;4.81;100.00;101046.84;5080297;58;1145218;-74
2021/11/17 04:18:48;;;;;;;98.03;46.13;;;;;;;4.84;100.00;101044.55;5079779;57;1143537;-77
2021/11/17 04:24:07;;;;;;;107.07;51.13;;;;;;;4.83;100.00;101044.15;5113070;57;1143222;-77
2021/11/17 04:29:24;;;;;;;100.03;51.67;;;;;;;4.74;100.00;101038.84;5164930;57;1145226;-77
2021/11/17 04:34:51;;;;;;;111.03;54.57;;;;;;;4.74;100.00;101027.05;5159808;57;1145269;-75
2021/11/17 04:40:39;;;;;;;76.73;37.03;;;;;;;4.68;100.00;101038.29;5164783;57;1143206;-75
2021/11/17 04:46:04;;;;;;;101.97;55.63;;;;;;;4.70;100.00;101037.77;5164784;57;1141110;-75
2021/11/17 04:51:20;;;;;;;98.43;50.27;;;;;;;4.66;100.00;101033.58;5119315;57;1143265;-78
2021/11/17 04:56:45;;;;;;;99.83;49.77;;;;;;;4.66;100.00;101029.64;5181302;56;1139112;-76
2021/11/17 05:02:00;;;;;;;88.47;46.63;;;;;;;4.58;100.00;101019.03;5242017;56;1141075;-77
2021/11/17 05:07:19;;;;;;;92.17;49.87;;;;;;;4.65;100.00;101019.63;5242293;56;1140972;-76
2021/11/17 05:12:45;;;;;;;102.53;52.60;;;;;;;4.70;100.00;101018.97;5242326;56;1136869;-77
2021/11/17 05:18:22;;;;;;;101.40;51.73;;;;;;;4.72;100.00;101014.97;5239457;56;1143141;-77
2021/11/17 05:23:51;;;;;;;100.30;47.17;;;;;;;4.71;100.00;101010.19;5240078;56;1143129;-77
2021/11/17 05:29:23;;;;;;;185.53;93.93;;;;;;;4.70;100.00;101013.73;5224242;56;1145241;-78
2021/11/17 05:34:37;;;;;;;192.20;108.80;;;;;;;4.71;100.00;101015.43;5224749;56;1145210;-78
2021/11/17 05:40:19;;;;;;;112.30;60.40;;;;;;;4.72;100.00;101014.97;5227149;56;1145390;-78
2021/11/17 05:45:49;;;;;;;88.87;46.20;;;;;;;4.69;100.00;101021.66;5228157;56;1143419;-78
2021/11/17 05:51:17;;;;;;;92.50;46.90;;;;;;;4.63;100.00;101012.29;5228343;56;1143145;-75
2021/11/17 05:56:30;;;;;;;98.33;53.67;;;;;;;4.59;100.00;101016.81;5205130;56;1141152;-76
2021/11/17 06:01:46;;;;;;;92.57;48.60;;;;;;;4.52;100.00;101011.47;5013344;58;1139155;-76
2021/11/17 06:06:50;;;;;;;96.07;47.37;;;;;;;4.50;100.00;101011.14;5012675;58;1139190;-76
2021/11/17 06:12:03;;;;;;;88.83;45.20;;;;;;;4.49;100.00;101008.12;5012873;59;1141133;-78
2021/11/17 06:17:11;;;;;;;;;;;;;;;4.45;100.00;101015.27;5016501;59;1141185;-78
2021/11/17 06:22:19;;;;;;;89.57;45.87;;;;;;;4.45;100.00;101013.11;5015198;59;974379;-86
2021/11/17 06:27:30;;;;;;;98.60;48.90;;;;;;;4.45;100.00;101011.34;4982594;58;1137019;-86
2021/11/17 06:32:37;;;;;;;98.63;48.80;;;;;;;4.42;100.00;101015.42;4883108;59;1136807;-86
2021/11/17 06:37:44;;;;;;;96.83;50.67;;;;;;;4.45;100.00;101015.73;4932182;58;1139206;-87
2021/11/17 06:42:57;;;;;;;110.07;55.50;;;;;;;4.48;100.00;101010.36;5060460;57;1143127;-85
2021/11/17 06:48:04;;;;;;;89.77;45.58;;;;;;;4.54;100.00;101014.02;5072559;57;1145130;-90
2021/11/17 06:53:11;;;;;;;78.93;38.93;;;;;;;4.49;100.00;101017.30;4929191;58;1141256;-87
2021/11/17 06:58:17;;;;;;;101.60;49.90;;;;;;;4.46;100.00;101015.66;4976492;58;1141065;-86
2021/11/17 07:03:24;;;;;;;86.50;43.17;;;;;;;4.43;100.00;101017.09;5043092;58;1145173;-85
2021/11/17 07:08:30;;;;;;;81.13;41.20;;;;;;;4.46;100.00;101012.19;5042904;58;1143136;-86
2021/11/17 07:13:36;;;;;;;87.42;44.08;;;;;;;4.47;100.00;101011.27;5043284;58;1141032;-87
2021/11/17 07:18:42;;;;;;;83.10;43.23;;;;;;;4.45;100.00;101010.03;5043069;58;1141029;-86
2021/11/17 07:23:48;;;;;;;89.87;45.73;;;;;;;4.46;100.00;101009.57;5043284;58;1143155;-85
2021/11/17 07:28:54;;;;;;;79.27;40.57;;;;;;;4.51;100.00;101021.55;5042898;58;1143114;-86
2021/11/17 07:34:00;;;;;;;79.03;37.73;;;;;;;4.55;100.00;101020.51;5072742;57;1143355;-89
2021/11/17 07:39:08;;;;;;;84.27;39.00;;;;;;;4.57;100.00;101026.53;5130345;57;1141091;-88
2021/11/17 07:44:16;;;;;;;81.67;38.77;;;;;;;4.63;100.00;101027.16;5087418;57;1143200;-90
2021/11/17 07:49:24;;;;;;;72.70;36.67;;;;;;;4.67;100.00;101028.73;5044257;57;1143118;-90
2021/11/17 07:54:31;;;;;;;76.87;39.80;;;;;;;4.69;100.00;101036.06;4995229;57;1140947;-90
2021/11/17 07:59:40;;;;;;;68.47;36.67;;;;;;;4.73;100.00;101033.70;4953537;58;1143172;-89
2021/11/17 08:04:46;;;;;;;69.63;36.90;;;;;;;4.77;100.00;101031.31;5004820;58;1143270;-89
2021/11/17 08:09:52;;;;;;;56.83;29.57;;;;;;;4.82;100.00;101024.95;5044589;58;1143101;-90
2021/11/17 08:14:58;;;;;;;73.40;36.00;;;;;;;4.84;100.00;101023.11;5044611;57;1141005;-88
2021/11/17 08:20:06;;;;;;;67.00;34.23;;;;;;;4.86;100.00;101034.84;4982119;58;1143152;-86
2021/11/17 08:25:14;;;;;;;72.10;37.17;;;;;;;4.88;100.00;101037.79;5043169;58;1143346;-81
2021/11/17 08:30:23;;;;;;;52.55;25.25;;;;;;;4.92;100.00;101036.70;5163221;57;1143139;-77
2021/11/17 08:35:30;;;;;;;76.07;37.37;;;;;;;4.95;100.00;101038.34;5142119;57;1143392;-83
2021/11/17 08:40:40;;;;;;;62.33;30.43;;;;;;;4.97;100.00;101045.67;5140264;57;1142996;-77
2021/11/17 08:45:48;;;;;;;56.57;28.17;;;;;;;5.02;100.00;101049.41;5130946;57;1143225;-78
2021/11/17 08:50:56;;;;;;;65.80;34.07;;;;;;;5.06;100.00;101053.56;5136478;57;1143110;-76
2021/11/17 08:56:04;;;;;;;67.77;35.70;;;;;;;5.07;100.00;101048.25;5138313;57;1142862;-78
2021/11/17 09:01:12;;;;;;;66.57;37.13;;;;;;;5.11;100.00;101043.27;5139593;57;1143437;-75
2021/11/17 09:06:18;;;;;;;66.50;35.13;;;;;;;5.20;100.00;101053.77;5137210;57;1143181;-80
2021/11/17 09:11:24;;;;;;;69.83;37.80;;;;;;;5.22;100.00;101055.41;5138207;57;1141129;-92
2021/11/17 09:16:32;;;;;;;74.20;36.43;;;;;;;5.21;100.00;101060.26;5108856;56;1143274;-92
2021/11/17 09:21:42;;;;;;;61.90;30.53;;;;;;;5.24;100.00;101056.19;5113173;56;1142452;-91
2021/11/17 09:26:52;;;;;;;59.73;28.83;;;;;;;5.24;100.00;101042.22;5058304;57;1141170;-88
2021/11/17 09:31:57;;;;;;;64.90;34.20;;;;;;;5.19;100.00;101034.59;5047203;57;1140526;-89
2021/11/17 09:37:03;;;;;;;71.80;36.90;;;;;;;5.16;100.00;101041.75;5096647;57;1141072;-88
2021/11/17 09:42:12;;;;;;;69.03;35.60;;;;;;;5.16;100.00;101036.50;5042724;57;1141156;-89
2021/11/17 09:47:22;;;;;;;60.23;34.90;;;;;;;5.14;100.00;101036.57;5042969;58;1141060;-89
2021/11/17 09:52:33;;;;;;;76.97;38.70;;;;;;;5.16;100.00;101036.05;5128127;56;1141211;-90
2021/11/17 09:57:44;;;;;;;61.83;33.55;;;;;;;5.15;100.00;101032.18;5101540;56;1141252;-89
2021/11/17 10:03:18;;;;;;;59.83;29.50;;;;;;;5.17;100.00;101036.89;5106719;57;1141026;-90
2021/11/17 10:09:01;;;;;;;60.70;29.55;;;;;;;5.17;100.00;101031.19;5067084;57;1138918;-89
2021/11/17 10:14:05;;;;;;;72.47;32.07;;;;;;;5.14;100.00;101015.59;5105002;57;1143027;-77
2021/11/17 10:19:31;;;;;;;74.43;35.93;;;;;;;5.18;100.00;101013.69;5144677;57;1143127;-79
2021/11/17 10:24:52;;;;;;;80.30;42.33;;;;;;;5.18;100.00;101003.20;5135988;56;1143106;-77
2021/11/17 10:30:11;;;;;;;74.67;40.93;;;;;;;5.20;100.00;100994.77;5119165;56;1143115;-81
2021/11/17 10:35:27;;;;;;;68.27;34.77;;;;;;;5.28;100.00;100991.34;5129435;57;1143173;-87
2021/11/17 10:40:46;;;;;;;68.37;35.63;;;;;;;5.28;100.00;100990.88;5130571;57;1143129;-85
2021/11/17 10:46:12;;;;;;;72.07;37.03;;;;;;;5.30;100.00;100996.05;4983427;58;1143270;-85
2021/11/17 10:51:23;;;;;;;56.77;31.93;;;;;;;5.33;100.00;100991.98;5077549;57;1143122;-85
2021/11/17 10:56:30;;;;;;;64.50;31.77;;;;;;;5.39;100.00;100997.36;4984182;58;1143050;-86
2021/11/17 11:01:41;;;;;;;64.77;32.47;;;;;;;5.38;100.00;100998.29;5118184;57;1143110;-86
2021/11/17 11:07:01;;;;;;;75.40;40.07;;;;;;;5.41;100.00;100993.75;4985436;58;1143095;-87
2021/11/17 11:12:07;;;;;;;62.17;30.67;;;;;;;5.44;100.00;100987.51;5057196;58;1141325;-88
2021/11/17 11:17:26;;;;;;;72.30;33.73;;;;;;;5.47;100.00;100984.74;4999419;57;1140963;-88
2021/11/17 11:22:32;;;;;;;72.53;34.77;;;;;;;5.49;100.00;100993.39;5042992;57;1141026;-85
2021/11/17 11:27:37;;;;;;;57.60;28.27;;;;;;;5.53;100.00;100987.05;5129060;56;1141113;-87
2021/11/17 11:32:48;;;;;;;73.10;34.30;;;;;;;5.54;100.00;100974.31;5122361;56;1141066;-86
2021/11/17 11:38:01;;;;;;;70.40;35.33;;;;;;;5.53;100.00;100970.84;5087089;56;1141075;-85
2021/11/17 11:43:25;;;;;;;71.47;36.30;;;;;;;5.53;100.00;100956.88;5094089;57;1141126;-86
2021/11/17 11:48:55;;;;;;;70.80;34.93;;;;;;;5.51;100.00;100956.09;5107008;56;1141155;-91
2021/11/17 11:54:19;;;;;;;73.17;36.03;;;;;;;5.51;100.00;100954.33;5055690;57;1142914;-89
2021/11/17 11:59:29;;;;;;;78.83;41.00;;;;;;;5.50;100.00;100948.69;5139379;57;1143093;-84
2021/11/17 12:04:38;;;;;;;80.28;37.28;;;;;;;5.53;100.00;100952.94;5134354;57;1143248;-85
2021/11/17 12:10:00;;;;;;;81.30;40.00;;;;;;;5.53;100.00;100949.00;5115875;56;1143031;-86
2021/11/17 12:15:27;;;;;;;65.30;28.37;;;;;;;5.56;100.00;100943.15;5102564;56;1143034;-84
2021/11/17 12:20:38;;;;;;;80.13;39.93;;;;;;;5.59;100.00;100940.38;5096037;57;1143056;-86
2021/11/17 12:25:54;;;;;;;73.60;32.23;;;;;;;5.59;100.00;100939.53;5128028;56;1143073;-84
2021/11/17 12:31:10;;;;;;;75.20;37.77;;;;;;;5.54;100.00;100937.12;5132697;57;1143288;-85
2021/11/17 12:36:35;;;;;;;60.35;28.60;;;;;;;5.53;100.00;100937.20;5144526;56;1143411;-86
2021/11/17 12:41:41;;;;;;;78.43;39.43;;;;;;;5.57;100.00;100942.23;5134008;56;1143132;-85
2021/11/17 12:47:07;;;;;;;69.53;35.77;;;;;;;5.57;100.00;100947.47;5127071;57;1143012;-83
2021/11/17 12:52:34;;;;;;;76.17;35.73;;;;;;;5.58;100.00;100929.95;4980622;58;1143140;-85
2021/11/17 12:58:02;;;;;;;84.47;38.63;;;;;;;5.62;100.00;100933.67;4980841;58;1141012;-84
2021/11/17 13:03:13;;;;;;;70.97;35.60;;;;;;;5.63;100.00;100933.20;4981381;58;1141558;-88
2021/11/17 13:08:18;;;;;;;66.57;30.92;;;;;;;5.62;100.00;100932.36;4980824;58;1141002;-88
2021/11/17 13:13:40;;;;;;;66.17;34.77;;;;;;;5.62;100.00;100931.05;5012465;57;1141521;-87
2021/11/17 13:18:51;;;;;;;61.03;30.87;;;;;;;5.63;100.00;100933.20;5147421;57;1141002;-88
2021/11/17 13:24:22;;;;;;;62.25;33.40;;;;;;;5.62;100.00;100928.42;5131802;57;1140989;-86
2021/11/17 13:30:03;;;;;;;59.70;31.67;;;;;;;5.64;100.00;100941.47;5138714;57;1143507;-88
2021/11/17 13:35:36;;;;;;;53.57;29.57;;;;;;;5.64;100.00;100934.91;5124294;57;1143046;-88
2021/11/17 13:40:46;;;;;;;56.55;30.68;;;;;;;5.64;100.00;100926.58;5093136;57;1143021;-87
2021/11/17 13:45:55;;;;;;;46.07;23.50;;;;;;;5.66;100.00;100933.03;5055490;58;1143162;-86
2021/11/17 13:51:01;;;;;;;37.27;20.33;;;;;;;5.67;100.00;100932.10;5105509;57;1143041;-91
2021/11/17 13:56:24;;;;;;;42.73;20.73;;;;;;;5.67;100.00;100939.98;5141082;57;1143100;-91
2021/11/17 14:01:30;;;;;;;39.23;16.00;;;;;;;5.63;100.00;100944.55;5141496;57;1143048;-90
2021/11/17 14:06:36;;;;;;;40.80;20.50;;;;;;;5.57;100.00;100944.85;5141024;57;1140956;-89
2021/11/17 14:11:44;;;;;;;34.63;15.87;;;;;;;5.53;100.00;100956.41;5140568;57;1143338;-89
2021/11/17 14:16:50;;;;;;;30.40;14.77;;;;;;;5.52;100.00;100948.62;5138452;57;1143282;-91
2021/11/17 14:21:57;;;;;;;112.10;39.60;;;;;;;5.47;100.00;100955.42;5096316;57;1143017;-84
2021/11/17 14:27:08;;;;;;;55.58;21.27;;;;;;;5.41;100.00;100955.72;5137986;57;1145178;-84
2021/11/17 14:32:19;;;;;;;109.57;46.03;;;;;;;5.30;100.00;100966.74;5133437;57;1141094;-84
2021/11/17 14:37:25;;;;;;;117.60;46.35;;;;;;;5.21;100.00;100962.38;5162041;57;1143173;-86
2021/11/17 14:42:31;;;;;;;58.03;27.23;;;;;;;5.17;100.00;100963.02;5162782;57;1145339;-86
2021/11/17 14:47:37;;;;;;;42.10;21.30;;;;;;;5.11;100.00;100959.83;5091036;56;1140981;-85
2021/11/17 14:52:44;;;;;;;24.43;13.07;;;;;;;5.11;100.00;100959.83;5098349;56;1143222;-87
2021/11/17 14:57:51;;;;;;;30.70;12.17;;;;;;;5.08;100.00;100951.64;5128213;57;1141036;-86
2021/11/17 15:02:57;;;;;;;31.97;11.50;;;;;;;5.07;100.00;100942.53;5128393;57;1141060;-86
2021/11/17 15:08:04;;;;;;;28.33;9.17;;;;;;;5.05;100.00;100945.23;5100128;56;1141014;-87
2021/11/17 15:13:11;;;;;;;17.77;8.87;;;;;;;5.06;100.00;100943.46;5061349;57;1139214;-86
2021/11/17 15:18:21;;;;;;;25.83;10.47;;;;;;;5.05;100.00;100946.54;5131127;57;1139050;-86
2021/11/17 15:23:26;;;;;;;17.30;8.37;;;;;;;5.04;100.00;100941.40;5102902;57;1141100;-88
2021/11/17 15:28:38;;;;;;;24.00;12.83;;;;;;;5.03;100.00;100943.63;5060224;57;1139107;-89
2021/11/17 15:33:45;;;;;;;12.67;6.33;;;;;;;5.03;100.00;100946.25;5112637;56;1138312;-90
2021/11/17 15:38:52;;;;;;;15.73;7.53;;;;;;;5.02;100.00;100941.93;5096283;57;1136879;-89
2021/11/17 15:43:58;;;;;;;16.67;8.00;;;;;;;5.03;100.00;100937.93;5129623;57;1136907;-88
2021/11/17 15:49:06;;;;;;;170.90;113.53;;;;;;;5.03;100.00;100938.39;5105217;57;1139034;-88
2021/11/17 15:54:12;;;;;;;29.70;20.60;;;;;;;5.03;100.00;100929.21;5048132;56;1145193;-90
2021/11/17 15:59:17;;;;;;;14.27;7.17;;;;;;;5.07;100.00;100922.88;5081987;56;1140960;-91
2021/11/17 16:04:23;;;;;;;13.67;7.23;;;;;;;5.06;100.00;100936.91;5070483;56;1138729;-89
2021/11/17 16:09:33;;;;;;;9.40;6.60;;;;;;;5.04;100.00;100928.30;5072541;56;1136893;-90
2021/11/17 16:14:40;;;;;;;11.27;6.83;;;;;;;5.02;100.00;100927.05;5071027;56;1132589;-89
2021/11/17 16:19:52;;;;;;;10.23;7.10;;;;;;;5.00;100.00;100932.83;5100621;56;1138971;-84
2021/11/17 16:30:20;;;;;;;19.60;9.00;;;;;;;4.93;100.00;100933.56;4893984;59;1141476;-83
2021/11/17 16:35:26;;;;;;;11.63;6.33;;;;;;;4.93;100.00;100935.34;4794799;61;1139100;-83
2021/11/17 16:40:34;;;;;;;16.00;9.73;;;;;;;4.94;100.00;100927.86;4798271;61;1139035;-83
2021/11/17 16:45:42;;;;;;;17.45;10.32;;;;;;;4.95;100.00;100921.70;4759935;62;1138987;-83
2021/11/17 16:50:49;;;;;;;7.80;5.60;;;;;;;4.95;100.00;100929.56;4706642;63;1141080;-83
2021/11/17 16:55:55;;;;;;;42.75;16.48;;;;;;;4.98;100.00;100935.13;4775711;62;1137298;-84
2021/11/17 17:01:03;;;;;;;41.67;17.87;;;;;;;5.03;100.00;100939.70;4705671;63;1141207;-76
2021/11/17 17:06:16;;;;;;;24.87;9.87;;;;;;;5.03;100.00;100939.70;4830961;59;1143128;-78
2021/11/17 17:11:24;;;;;;;20.23;9.30;;;;;;;5.04;100.00;100953.20;5022295;58;1139204;-80
2021/11/17 17:16:30;;;;;;;20.20;10.50;;;;;;;5.02;100.00;100952.41;5011708;57;1139041;-78
2021/11/17 17:21:36;;;;;;;11.37;6.97;;;;;;;5.01;100.00;100952.88;5100027;57;1141109;-76
2021/11/17 17:26:42;;;;;;;18.63;9.23;;;;;;;5.01;100.00;100959.89;5065465;57;1139318;-78
2021/11/17 17:31:48;;;;;;;19.10;11.17;;;;;;;5.00;100.00;100955.56;5118908;56;1138937;-75
2021/11/17 17:36:54;;;;;;;16.87;9.30;;;;;;;5.03;100.00;100949.72;5209171;56;1143170;-78
2021/11/17 17:42:03;;;;;;;20.63;9.17;;;;;;;5.03;100.00;100944.48;5024020;58;1141305;-75
2021/11/17 17:47:09;;;;;;;29.70;18.23;;;;;;;5.05;100.00;100950.94;5013289;58;1138970;-75
2021/11/17 17:52:16;;;;;;;105.77;40.30;;;;;;;5.04;100.00;100955.33;5181991;56;1140910;-78
2021/11/17 17:57:25;;;;;;;41.10;16.33;;;;;;;5.07;100.00;100951.71;5201477;56;1143591;-75
2021/11/17 18:02:31;;;;;;;36.13;15.85;;;;;;;5.08;100.00;100949.02;5212199;56;1140984;-78
2021/11/17 18:07:39;;;;;;;37.47;18.17;;;;;;;5.11;100.00;100948.87;5200559;56;1143341;-76
2021/11/17 18:12:45;;;;;;;22.70;9.70;;;;;;;5.12;100.00;100946.65;5172662;56;1143365;-75
2021/11/17 18:17:50;;;;;;;46.50;17.40;;;;;;;5.12;100.00;100939.24;5228324;56;1140991;-76
2021/11/17 18:22:56;;;;;;;40.13;13.20;;;;;;;5.11;100.00;100943.64;5112456;56;1143516;-77
2021/11/17 18:28:02;;;;;;;41.40;15.65;;;;;;;5.11;100.00;100940.16;5015335;58;1143216;-78
2021/11/17 18:33:09;;;;;;;54.77;23.53;;;;;;;5.08;100.00;100937.22;5159590;56;1141456;-78
2021/11/17 18:38:14;;;;;;;42.07;17.07;;;;;;;5.08;100.00;100949.48;5213355;56;1141207;-75
2021/11/17 18:43:21;;;;;;;34.77;15.00;;;;;;;5.10;100.00;100945.02;5227752;56;1141053;-77
2021/11/17 18:48:28;;;;;;;27.22;13.58;;;;;;;5.10;100.00;100930.59;5138634;57;1143295;-77
2021/11/17 18:53:44;;;;;;;28.07;14.67;;;;;;;5.11;100.00;100940.16;5024723;58;1141371;-79
2021/11/17 18:58:54;;;;;;;43.93;17.07;;;;;;;5.10;100.00;100968.16;5186177;56;1139078;-75
2021/11/17 19:04:00;;;;;;;34.80;14.63;;;;;;;5.12;100.00;100975.48;5019029;57;1141424;-77
2021/11/17 19:09:06;;;;;;;27.37;11.03;;;;;;;5.12;100.00;100990.37;5072967;57;1139312;-77
2021/11/17 19:14:10;;;;;;;27.73;12.53;;;;;;;5.13;100.00;101002.09;5126186;57;1138931;-77
2021/11/17 19:19:17;;;;;;;21.50;14.50;;;;;;;5.11;100.00;100996.53;5126280;57;1138958;-77
2021/11/17 19:24:26;;;;;;;75.47;19.37;;;;;;;5.13;100.00;101000.78;5126082;57;1139041;-77
2021/11/17 19:29:34;;;;;;;27.57;12.37;;;;;;;5.13;100.00;100990.30;5126224;57;1138967;-77
2021/11/17 19:34:42;;;;;;;29.20;11.37;;;;;;;5.15;100.00;100980.59;5126021;57;1139221;-76
2021/11/17 19:39:48;;;;;;;24.27;12.23;;;;;;;5.17;100.00;100994.48;5074743;57;1141203;-78
2021/11/17 19:44:54;;;;;;;15.03;9.37;;;;;;;5.17;100.00;100997.10;5092914;57;1141071;-76
2021/11/17 19:50:01;;;;;;;13.57;9.27;;;;;;;5.19;100.00;101000.97;5074474;57;1136961;-76
2021/11/17 19:55:11;;;;;;;51.45;26.52;;;;;;;5.18;100.00;101001.43;5063298;58;1136936;-78
2021/11/17 20:00:21;;;;;;;46.37;25.80;;;;;;;5.16;100.00;101003.73;5060612;58;1139032;-82
2021/11/17 20:05:27;;;;;;;19.43;10.67;;;;;;;5.14;100.00;101010.81;5064846;58;1136866;-79
2021/11/17 20:10:35;;;;;;;18.82;11.25;;;;;;;5.08;100.00;101005.84;5070285;58;1141162;-79
2021/11/17 20:15:45;;;;;;;19.40;9.87;;;;;;;5.04;100.00;101000.38;5174201;56;1141080;-81
2021/11/17 20:20:55;;;;;;;25.35;13.13;;;;;;;4.97;100.00;101019.92;5049129;57;1138886;-78
2021/11/17 20:26:01;;;;;;;13.30;9.27;;;;;;;4.93;100.00;101020.52;5154479;57;1143310;-78
2021/11/17 20:31:09;;;;;;;17.90;8.37;;;;;;;4.92;100.00;101025.37;5061697;58;1141076;-77
2021/11/17 20:36:16;;;;;;;18.63;9.33;;;;;;;4.87;100.00;101026.06;5038445;58;1138950;-80
2021/11/17 20:41:24;;;;;;;15.37;8.83;;;;;;;4.87;100.00;101022.12;5018081;56;1141029;-81
2021/11/17 20:46:30;;;;;;;12.53;8.13;;;;;;;4.84;100.00;101027.50;5133424;56;1141000;-79
2021/11/17 20:51:36;;;;;;;16.00;9.17;;;;;;;4.80;100.00;101028.56;5123899;56;1139004;-80
2021/11/17 20:56:42;;;;;;;17.47;11.10;;;;;;;4.79;100.00;101025.55;5171273;56;1138912;-81
2021/11/17 21:01:49;;;;;;;17.17;9.90;;;;;;;4.81;100.00;101022.40;5181283;56;1140964;-76
2021/11/17 21:06:55;;;;;;;38.70;15.70;;;;;;;4.79;100.00;101029.02;5146057;56;1139103;-78
2021/11/17 21:12:01;;;;;;;22.23;12.63;;;;;;;4.79;100.00;101042.58;5137578;56;1141053;-80
2021/11/17 21:17:10;;;;;;;28.53;14.10;;;;;;;4.78;100.00;101040.87;5150644;56;1141314;-79
2021/11/17 21:22:16;;;;;;;19.63;12.10;;;;;;;4.79;100.00;101032.09;5142484;56;1140956;-79
2021/11/17 21:27:22;;;;;;;25.47;14.03;;;;;;;4.81;100.00;101038.97;5125958;56;1141052;-81
2021/11/17 21:32:27;;;;;;;21.47;12.73;;;;;;;4.83;100.00;101036.28;5064886;58;1140627;-79
2021/11/17 21:37:34;;;;;;;18.17;10.47;;;;;;;4.85;100.00;101041.00;5064988;57;1140987;-78
2021/11/17 21:42:40;;;;;;;18.43;10.97;;;;;;;4.86;100.00;101045.33;5064903;58;1141070;-80
2021/11/17 21:47:46;;;;;;;16.80;10.47;;;;;;;4.87;100.00;101047.88;5065242;58;1141071;-79
2021/11/17 21:52:52;;;;;;;22.50;10.53;;;;;;;4.88;100.00;101048.73;5064316;58;1141437;-78
2021/11/17 21:57:58;;;;;;;18.20;10.57;;;;;;;4.90;100.00;101042.47;5064465;58;1141475;-79
2021/11/17 22:03:04;;;;;;;17.60;9.97;;;;;;;4.94;100.00;101047.13;5065012;58;1140985;-79
2021/11/17 22:08:11;;;;;;;20.00;11.47;;;;;;;4.97;100.00;101050.06;5065053;58;1138999;-79
2021/11/17 22:13:19;;;;;;;20.27;11.03;;;;;;;4.99;100.00;101054.33;5065997;58;1141085;-81
2021/11/17 22:18:25;;;;;;;19.83;11.90;;;;;;;5.02;100.00;101056.81;5066127;58;1141013;-81
2021/11/17 22:23:34;;;;;;;19.07;9.73;;;;;;;5.05;100.00;101054.02;5066065;58;1141127;-79
2021/11/17 22:28:44;;;;;;;18.73;10.53;;;;;;;5.08;100.00;101053.89;5066247;57;1139269;-81
2021/11/17 22:33:53;;;;;;;21.57;11.77;;;;;;;5.10;100.00;101053.36;5066058;58;1141040;-79
2021/11/17 22:38:59;;;;;;;19.80;10.50;;;;;;;5.13;100.00;101066.33;5103285;57;1141248;-81
2021/11/17 22:44:06;;;;;;;21.00;10.97;;;;;;;5.14;100.00;101059.31;5156462;57;1141326;-79
2021/11/17 22:49:12;;;;;;;19.33;10.00;;;;;;;5.16;100.00;101058.33;5156635;57;1140937;-81
2021/11/17 22:54:17;;;;;;;22.25;11.93;;;;;;;5.20;100.00;101051.14;5156288;57;1141057;-79
2021/11/17 22:59:23;;;;;;;20.53;11.23;;;;;;;5.25;100.00;101050.48;5156367;57;1141078;-79
2021/11/17 23:04:28;;;;;;;25.77;14.57;;;;;;;5.28;100.00;101051.66;5156273;57;1139236;-79
2021/11/17 23:09:37;;;;;;;24.77;12.50;;;;;;;5.33;100.00;101052.30;5156156;57;1140838;-81
2021/11/17 23:14:43;;;;;;;22.40;12.10;;;;;;;5.36;100.00;101045.57;5156301;57;1141105;-80
2021/11/17 23:19:50;;;;;;;26.03;12.50;;;;;;;5.40;100.00;101044.51;5157166;57;1141042;-79
2021/11/17 23:24:55;;;;;;;21.10;10.67;;;;;;;5.43;100.00;101052.70;5165027;56;1141110;-78
2021/11/17 23:30:02;;;;;;;22.80;12.83;;;;;;;5.47;100.00;101049.86;5164983;56;1141335;-81
2021/11/17 23:35:11;;;;;;;21.63;12.50;;;;;;;5.51;100.00;101038.73;5164917;57;1141042;-78
2021/11/17 23:40:18;;;;;;;26.63;13.20;;;;;;;5.55;100.00;101046.86;5199113;56;1141075;-76
2021/11/17 23:45:26;;;;;;;20.17;10.77;;;;;;;5.56;100.00;101044.63;5242540;56;1141059;-75
2021/11/17 23:50:38;;;;;;;22.00;10.10;;;;;;;5.59;100.00;101061.53;5242345;56;1141389;-76
2021/11/17 23:55:45;;;;;;;26.23;12.20;;;;;;;5.59;100.00;101051.04;5242361;56;1141022;-77
